sensor_id;sensor_type;location;lat;lon;timestamp;pressure;altitude;pressure_sealevel;temperature;humidity
13593;BME280;6867;50.998;4.250;2024-03-08T00:01:36;100950.63;;;10.85;56.78
13593;BME280;6867;50.998;4.250;2024-03-08T00:04:04;100953.75;;;11.02;56.93
13593;BME280;6867;50.998;4.250;2024-03-08T00:06:31;100950.22;;;10.94;56.94
13593;BME280;6867;50.998;4.250;2024-03-08T00:08:58;100943.84;;;11.09;56.53
13593;BME280;6867;50.998;4.250;2024-03-08T00:11:25;100936.97;;;10.86;56.85
13593;BME280;6867;50.998;4.250;2024-03-08T00:13:52;100944.25;;;10.92;57.04
13593;BME280;6867;50.998;4.250;2024-03-08T00:16:22;100940.72;;;10.79;57.25
13593;BME280;6867;50.998;4.250;2024-03-08T00:18:49;100933.25;;;10.74;57.42
13593;BME280;6867;50.998;4.250;2024-03-08T00:21:17;100954.34;;;10.70;57.56
13593;BME280;6867;50.998;4.250;2024-03-08T00:23:44;100958.31;;;10.88;57.18
13593;BME280;6867;50.998;4.250;2024-03-08T00:26:14;100936.78;;;10.94;56.99
13593;BME280;6867;50.998;4.250;2024-03-08T00:28:40;100933.47;;;10.66;57.80
13593;BME280;6867;50.998;4.250;2024-03-08T00:31:07;100921.69;;;10.67;57.37
13593;BME280;6867;50.998;4.250;2024-03-08T00:33:35;100951.25;;;10.80;58.05
13593;BME280;6867;50.998;4.250;2024-03-08T00:36:03;100937.84;;;10.87;56.91
13593;BME280;6867;50.998;4.250;2024-03-08T00:38:31;100947.69;;;10.46;58.75
13593;BME280;6867;50.998;4.250;2024-03-08T00:40:59;100952.66;;;10.56;58.71
13593;BME280;6867;50.998;4.250;2024-03-08T00:43:27;100922.66;;;10.39;58.06
13593;BME280;6867;50.998;4.250;2024-03-08T00:45:55;100943.16;;;10.73;58.68
13593;BME280;6867;50.998;4.250;2024-03-08T00:48:23;100933.44;;;10.59;57.79
13593;BME280;6867;50.998;4.250;2024-03-08T00:50:49;100951.63;;;10.64;58.01
13593;BME280;6867;50.998;4.250;2024-03-08T00:53:16;100933.63;;;10.51;57.99
13593;BME280;6867;50.998;4.250;2024-03-08T00:55:44;100947.13;;;10.71;57.65
13593;BME280;6867;50.998;4.250;2024-03-08T00:58:11;100934.84;;;10.48;58.70
13593;BME280;6867;50.998;4.250;2024-03-08T01:00:38;100916.88;;;10.49;57.84
13593;BME280;6867;50.998;4.250;2024-03-08T01:03:05;100919.81;;;10.67;57.62
13593;BME280;6867;50.998;4.250;2024-03-08T01:05:32;100921.69;;;10.67;57.92
13593;BME280;6867;50.998;4.250;2024-03-08T01:07:59;100919.16;;;10.45;58.66
13593;BME280;6867;50.998;4.250;2024-03-08T01:10:25;100912.59;;;10.75;57.56
13593;BME280;6867;50.998;4.250;2024-03-08T01:12:54;100905.91;;;10.31;58.39
13593;BME280;6867;50.998;4.250;2024-03-08T01:15:22;100923.06;;;10.43;58.21
13593;BME280;6867;50.998;4.250;2024-03-08T01:17:49;100906.56;;;10.53;57.85
13593;BME280;6867;50.998;4.250;2024-03-08T01:20:16;100900.78;;;10.56;57.72
13593;BME280;6867;50.998;4.250;2024-03-08T01:22:45;100907.25;;;10.75;57.23
13593;BME280;6867;50.998;4.250;2024-03-08T01:25:12;100876.63;;;10.69;56.83
13593;BME280;6867;50.998;4.250;2024-03-08T01:27:39;100886.75;;;10.67;57.77
13593;BME280;6867;50.998;4.250;2024-03-08T01:30:08;100888.19;;;10.56;57.75
13593;BME280;6867;50.998;4.250;2024-03-08T01:32:36;100872.91;;;10.77;56.92
13593;BME280;6867;50.998;4.250;2024-03-08T01:35:04;100755.00;;;8.50;58.92
13593;BME280;6867;50.998;4.250;2024-03-08T01:37:31;100890.47;;;9.50;60.14
13593;BME280;6867;50.998;4.250;2024-03-08T01:39:58;100890.50;;;9.57;59.89
13593;BME280;6867;50.998;4.250;2024-03-08T01:42:24;100896.53;;;9.31;60.67
13593;BME280;6867;50.998;4.250;2024-03-08T01:44:54;100893.75;;;9.45;59.99
13593;BME280;6867;50.998;4.250;2024-03-08T01:47:22;100873.44;;;9.30;59.78
13593;BME280;6867;50.998;4.250;2024-03-08T01:49:49;100871.31;;;9.60;59.11
13593;BME280;6867;50.998;4.250;2024-03-08T01:52:17;100875.97;;;9.79;59.22
13593;BME280;6867;50.998;4.250;2024-03-08T01:54:48;100843.06;;;9.57;58.46
13593;BME280;6867;50.998;4.250;2024-03-08T01:57:15;100853.44;;;9.73;58.85
13593;BME280;6867;50.998;4.250;2024-03-08T01:59:42;100848.16;;;9.87;58.37
13593;BME280;6867;50.998;4.250;2024-03-08T02:02:11;100847.22;;;9.66;59.28
13593;BME280;6867;50.998;4.250;2024-03-08T02:04:42;100817.09;;;9.64;58.14
13593;BME280;6867;50.998;4.250;2024-03-08T02:07:09;100843.91;;;9.58;58.96
13593;BME280;6867;50.998;4.250;2024-03-08T02:09:37;100829.41;;;9.45;58.62
13593;BME280;6867;50.998;4.250;2024-03-08T02:12:05;100832.97;;;9.59;58.40
13593;BME280;6867;50.998;4.250;2024-03-08T02:14:31;100816.59;;;9.41;58.77
13593;BME280;6867;50.998;4.250;2024-03-08T02:17:00;100810.97;;;9.36;58.16
13593;BME280;6867;50.998;4.250;2024-03-08T02:19:27;100799.53;;;9.14;58.87
13593;BME280;6867;50.998;4.250;2024-03-08T02:21:55;100796.00;;;9.13;59.06
13593;BME280;6867;50.998;4.250;2024-03-08T02:24:23;100814.78;;;8.85;59.61
13593;BME280;6867;50.998;4.250;2024-03-08T02:26:51;100805.78;;;9.28;58.64
13593;BME280;6867;50.998;4.250;2024-03-08T02:29:19;100813.00;;;8.92;60.10
13593;BME280;6867;50.998;4.250;2024-03-08T02:31:47;100792.34;;;8.86;60.11
13593;BME280;6867;50.998;4.250;2024-03-08T02:34:13;100779.41;;;8.62;60.02
13593;BME280;6867;50.998;4.250;2024-03-08T02:36:40;100785.69;;;8.76;59.76
13593;BME280;6867;50.998;4.250;2024-03-08T02:39:08;100786.13;;;8.79;59.83
13593;BME280;6867;50.998;4.250;2024-03-08T02:41:35;100776.94;;;8.17;60.67
13593;BME280;6867;50.998;4.250;2024-03-08T02:44:02;100777.75;;;8.39;60.48
13593;BME280;6867;50.998;4.250;2024-03-08T02:46:29;100774.78;;;8.49;60.23
13593;BME280;6867;50.998;4.250;2024-03-08T02:48:56;100769.13;;;8.65;59.82
13593;BME280;6867;50.998;4.250;2024-03-08T02:51:23;100758.31;;;8.52;59.84
13593;BME280;6867;50.998;4.250;2024-03-08T02:53:51;100766.44;;;8.37;60.40
13593;BME280;6867;50.998;4.250;2024-03-08T02:56:19;100745.06;;;8.72;59.28
13593;BME280;6867;50.998;4.250;2024-03-08T02:58:47;100747.94;;;9.05;58.34
13593;BME280;6867;50.998;4.250;2024-03-08T03:01:14;100729.16;;;8.64;59.17
13593;BME280;6867;50.998;4.250;2024-03-08T03:03:41;100714.72;;;8.65;58.77
13593;BME280;6867;50.998;4.250;2024-03-08T03:06:07;100718.16;;;8.31;59.48
13593;BME280;6867;50.998;4.250;2024-03-08T03:08:35;100741.63;;;8.29;59.76
13593;BME280;6867;50.998;4.250;2024-03-08T03:11:02;100706.53;;;8.17;59.82
13593;BME280;6867;50.998;4.250;2024-03-08T03:13:30;100740.41;;;8.31;60.15
13593;BME280;6867;50.998;4.250;2024-03-08T03:15:57;100705.88;;;8.15;59.56
13593;BME280;6867;50.998;4.250;2024-03-08T03:18:24;100715.44;;;8.45;59.46
13593;BME280;6867;50.998;4.250;2024-03-08T03:20:52;100718.50;;;8.70;58.72
13593;BME280;6867;50.998;4.250;2024-03-08T03:23:19;100708.56;;;9.06;58.02
13593;BME280;6867;50.998;4.250;2024-03-08T03:25:46;100689.25;;;9.17;57.28
13593;BME280;6867;50.998;4.250;2024-03-08T03:28:13;100677.97;;;9.35;56.29
13593;BME280;6867;50.998;4.250;2024-03-08T03:30:44;100664.25;;;9.03;56.76
13593;BME280;6867;50.998;4.250;2024-03-08T03:33:12;100688.22;;;8.70;58.42
13593;BME280;6867;50.998;4.250;2024-03-08T03:35:40;100675.03;;;9.23;56.98
13593;BME280;6867;50.998;4.250;2024-03-08T03:38:08;100667.47;;;9.46;55.72
13593;BME280;6867;50.998;4.250;2024-03-08T03:40:35;100654.47;;;9.37;57.02
13593;BME280;6867;50.998;4.250;2024-03-08T03:43:03;100662.00;;;9.07;56.92
13593;BME280;6867;50.998;4.250;2024-03-08T03:45:30;100656.84;;;9.05;57.25
13593;BME280;6867;50.998;4.250;2024-03-08T03:48:03;100661.28;;;9.39;56.06
13593;BME280;6867;50.998;4.250;2024-03-08T03:50:32;100624.53;;;9.20;55.64
13593;BME280;6867;50.998;4.250;2024-03-08T03:52:59;100670.38;;;9.52;55.75
13593;BME280;6867;50.998;4.250;2024-03-08T03:55:27;100641.72;;;9.45;55.61
13593;BME280;6867;50.998;4.250;2024-03-08T03:57:54;100632.44;;;9.68;56.00
13593;BME280;6867;50.998;4.250;2024-03-08T04:00:20;100613.03;;;9.46;55.60
13593;BME280;6867;50.998;4.250;2024-03-08T04:02:47;100627.66;;;9.37;55.58
13593;BME280;6867;50.998;4.250;2024-03-08T04:05:15;100604.09;;;9.19;55.88
13593;BME280;6867;50.998;4.250;2024-03-08T04:07:42;100609.25;;;9.14;56.22
13593;BME280;6867;50.998;4.250;2024-03-08T04:10:11;100595.25;;;8.57;56.95
13593;BME280;6867;50.998;4.250;2024-03-08T04:12:38;100616.47;;;8.59;57.21
13593;BME280;6867;50.998;4.250;2024-03-08T04:15:06;100613.50;;;8.40;57.73
13593;BME280;6867;50.998;4.250;2024-03-08T04:17:32;100633.94;;;8.55;57.75
13593;BME280;6867;50.998;4.250;2024-03-08T04:20:01;100613.34;;;8.55;57.76
13593;BME280;6867;50.998;4.250;2024-03-08T04:22:34;100622.03;;;8.64;57.07
13593;BME280;6867;50.998;4.250;2024-03-08T04:25:01;100619.13;;;8.59;57.07
13593;BME280;6867;50.998;4.250;2024-03-08T04:27:28;100625.25;;;8.46;57.84
13593;BME280;6867;50.998;4.250;2024-03-08T04:29:55;100608.25;;;8.32;57.90
13593;BME280;6867;50.998;4.250;2024-03-08T04:32:22;100604.13;;;8.30;57.88
13593;BME280;6867;50.998;4.250;2024-03-08T04:34:49;100630.81;;;8.23;58.66
13593;BME280;6867;50.998;4.250;2024-03-08T04:37:15;100632.72;;;8.29;58.17
13593;BME280;6867;50.998;4.250;2024-03-08T04:39:45;100617.22;;;8.18;58.00
13593;BME280;6867;50.998;4.250;2024-03-08T04:42:12;100640.09;;;8.20;58.45
13593;BME280;6867;50.998;4.250;2024-03-08T04:44:39;100620.72;;;8.46;57.76
13593;BME280;6867;50.998;4.250;2024-03-08T04:47:06;100609.38;;;8.16;58.25
13593;BME280;6867;50.998;4.250;2024-03-08T04:49:33;100620.97;;;8.23;58.12
13593;BME280;6867;50.998;4.250;2024-03-08T04:52:01;100633.03;;;8.41;58.10
13593;BME280;6867;50.998;4.250;2024-03-08T04:54:29;100605.25;;;8.14;58.49
13593;BME280;6867;50.998;4.250;2024-03-08T04:56:57;100589.69;;;8.24;57.71
13593;BME280;6867;50.998;4.250;2024-03-08T04:59:25;100604.66;;;8.18;58.23
13593;BME280;6867;50.998;4.250;2024-03-08T05:01:52;100610.38;;;8.85;56.87
13593;BME280;6867;50.998;4.250;2024-03-08T05:04:19;100600.94;;;8.89;56.79
13593;BME280;6867;50.998;4.250;2024-03-08T05:06:46;100572.09;;;8.97;55.76
13593;BME280;6867;50.998;4.250;2024-03-08T05:09:12;100565.84;;;8.77;56.18
13593;BME280;6867;50.998;4.250;2024-03-08T05:11:40;100581.75;;;8.85;56.66
13593;BME280;6867;50.998;4.250;2024-03-08T05:14:08;100571.47;;;8.82;56.61
13593;BME280;6867;50.998;4.250;2024-03-08T05:16:35;100555.53;;;8.67;57.03
13593;BME280;6867;50.998;4.250;2024-03-08T05:19:02;100576.72;;;8.62;57.01
13593;BME280;6867;50.998;4.250;2024-03-08T05:21:29;100563.34;;;8.69;56.73
13593;BME280;6867;50.998;4.250;2024-03-08T05:23:55;100577.13;;;8.59;57.27
13593;BME280;6867;50.998;4.250;2024-03-08T05:26:22;100551.50;;;8.43;56.97
13593;BME280;6867;50.998;4.250;2024-03-08T05:28:49;100561.53;;;8.69;56.73
13593;BME280;6867;50.998;4.250;2024-03-08T05:31:19;100567.44;;;8.65;57.00
13593;BME280;6867;50.998;4.250;2024-03-08T05:33:47;100562.34;;;8.70;56.86
13593;BME280;6867;50.998;4.250;2024-03-08T05:36:14;100549.66;;;8.44;57.44
13593;BME280;6867;50.998;4.250;2024-03-08T05:38:45;100566.38;;;8.53;57.38
13593;BME280;6867;50.998;4.250;2024-03-08T05:41:11;100556.53;;;8.60;57.09
13593;BME280;6867;50.998;4.250;2024-03-08T05:43:40;100569.47;;;8.56;57.48
13593;BME280;6867;50.998;4.250;2024-03-08T05:46:07;100535.28;;;8.52;56.58
13593;BME280;6867;50.998;4.250;2024-03-08T05:48:35;100552.03;;;8.67;56.39
13593;BME280;6867;50.998;4.250;2024-03-08T05:51:03;100541.94;;;8.69;56.67
13593;BME280;6867;50.998;4.250;2024-03-08T05:53:29;100524.72;;;8.37;56.68
13593;BME280;6867;50.998;4.250;2024-03-08T05:55:57;100526.97;;;8.40;56.44
13593;BME280;6867;50.998;4.250;2024-03-08T05:58:24;100548.50;;;8.60;57.10
13593;BME280;6867;50.998;4.250;2024-03-08T06:00:51;100547.06;;;8.64;56.28
13593;BME280;6867;50.998;4.250;2024-03-08T06:03:18;100544.03;;;8.80;55.96
13593;BME280;6867;50.998;4.250;2024-03-08T06:05:48;100530.38;;;8.62;56.04
13593;BME280;6867;50.998;4.250;2024-03-08T06:08:15;100530.13;;;8.57;56.55
13593;BME280;6867;50.998;4.250;2024-03-08T06:10:44;100528.53;;;8.69;56.36
13593;BME280;6867;50.998;4.250;2024-03-08T06:13:11;100524.06;;;8.35;57.24
13593;BME280;6867;50.998;4.250;2024-03-08T06:15:38;100524.94;;;8.42;57.05
13593;BME280;6867;50.998;4.250;2024-03-08T06:18:05;100526.03;;;8.54;56.64
13593;BME280;6867;50.998;4.250;2024-03-08T06:20:36;100552.97;;;8.46;57.69
13593;BME280;6867;50.998;4.250;2024-03-08T06:23:04;100547.84;;;8.51;57.23
13593;BME280;6867;50.998;4.250;2024-03-08T06:25:31;100537.53;;;8.48;56.70
13593;BME280;6867;50.998;4.250;2024-03-08T06:27:58;100545.84;;;8.66;56.48
13593;BME280;6867;50.998;4.250;2024-03-08T06:30:24;100525.69;;;8.77;56.38
13593;BME280;6867;50.998;4.250;2024-03-08T06:32:51;100534.03;;;8.47;57.03
13593;BME280;6867;50.998;4.250;2024-03-08T06:35:18;100532.03;;;8.63;56.80
13593;BME280;6867;50.998;4.250;2024-03-08T06:37:45;100547.06;;;8.64;57.55
13593;BME280;6867;50.998;4.250;2024-03-08T06:40:14;100517.81;;;8.62;56.98
13593;BME280;6867;50.998;4.250;2024-03-08T06:42:41;100524.88;;;8.83;56.24
13593;BME280;6867;50.998;4.250;2024-03-08T06:45:08;100513.75;;;8.80;56.64
13593;BME280;6867;50.998;4.250;2024-03-08T06:47:35;100507.16;;;8.76;56.28
13593;BME280;6867;50.998;4.250;2024-03-08T06:50:02;100506.28;;;8.68;56.75
13593;BME280;6867;50.998;4.250;2024-03-08T06:52:31;100517.88;;;8.82;56.80
13593;BME280;6867;50.998;4.250;2024-03-08T06:54:58;100508.00;;;8.83;56.88
13593;BME280;6867;50.998;4.250;2024-03-08T06:57:28;100515.63;;;8.92;56.56
13593;BME280;6867;50.998;4.250;2024-03-08T06:59:55;100505.56;;;9.01;55.60
13593;BME280;6867;50.998;4.250;2024-03-08T07:02:22;100503.06;;;9.06;56.12
13593;BME280;6867;50.998;4.250;2024-03-08T07:04:50;100500.41;;;9.13;56.17
13593;BME280;6867;50.998;4.250;2024-03-08T07:07:18;100522.50;;;9.35;55.51
13593;BME280;6867;50.998;4.250;2024-03-08T07:09:46;100507.03;;;9.37;55.27
13593;BME280;6867;50.998;4.250;2024-03-08T07:12:15;100485.34;;;9.32;55.18
13593;BME280;6867;50.998;4.250;2024-03-08T07:14:43;100453.19;;;8.85;55.49
13593;BME280;6867;50.998;4.250;2024-03-08T07:17:11;100489.50;;;9.21;55.44
13593;BME280;6867;50.998;4.250;2024-03-08T07:19:38;100439.59;;;8.80;55.45
13593;BME280;6867;50.998;4.250;2024-03-08T07:22:05;100487.44;;;9.16;56.10
13593;BME280;6867;50.998;4.250;2024-03-08T07:24:34;100465.75;;;8.98;56.11
13593;BME280;6867;50.998;4.250;2024-03-08T07:27:16;100462.28;;;9.11;55.80
13593;BME280;6867;50.998;4.250;2024-03-08T07:29:44;100471.78;;;9.33;55.66
13593;BME280;6867;50.998;4.250;2024-03-08T07:32:11;100474.25;;;9.21;55.47
13593;BME280;6867;50.998;4.250;2024-03-08T07:34:47;100489.69;;;9.39;55.73
13593;BME280;6867;50.998;4.250;2024-03-08T07:37:14;100491.34;;;9.40;56.27
13593;BME280;6867;50.998;4.250;2024-03-08T07:39:40;100516.72;;;9.51;55.58
13593;BME280;6867;50.998;4.250;2024-03-08T07:42:08;100502.66;;;9.89;55.13
13593;BME280;6867;50.998;4.250;2024-03-08T07:44:37;100440.66;;;9.32;54.97
13593;BME280;6867;50.998;4.250;2024-03-08T07:47:05;100493.41;;;9.52;55.38
13593;BME280;6867;50.998;4.250;2024-03-08T07:49:35;100487.59;;;9.61;55.31
13593;BME280;6867;50.998;4.250;2024-03-08T07:52:02;100484.88;;;9.94;55.06
13593;BME280;6867;50.998;4.250;2024-03-08T07:54:32;100496.47;;;9.88;55.34
13593;BME280;6867;50.998;4.250;2024-03-08T07:56:59;100505.34;;;9.69;56.08
13593;BME280;6867;50.998;4.250;2024-03-08T07:59:28;100494.06;;;10.32;54.63
13593;BME280;6867;50.998;4.250;2024-03-08T08:01:55;100477.31;;;10.36;54.09
13593;BME280;6867;50.998;4.250;2024-03-08T08:04:24;100454.84;;;10.37;54.11
13593;BME280;6867;50.998;4.250;2024-03-08T08:06:52;100446.78;;;10.24;54.17
13593;BME280;6867;50.998;4.250;2024-03-08T08:09:20;100457.75;;;10.29;53.38
13593;BME280;6867;50.998;4.250;2024-03-08T08:11:54;100485.63;;;11.05;52.88
13593;BME280;6867;50.998;4.250;2024-03-08T08:14:21;100453.59;;;10.71;53.46
13593;BME280;6867;50.998;4.250;2024-03-08T08:16:48;100428.16;;;9.91;53.88
13593;BME280;6867;50.998;4.250;2024-03-08T08:19:17;100460.69;;;10.66;53.49
13593;BME280;6867;50.998;4.250;2024-03-08T08:21:45;100454.38;;;10.40;53.99
13593;BME280;6867;50.998;4.250;2024-03-08T08:24:12;100421.63;;;10.25;53.86
13593;BME280;6867;50.998;4.250;2024-03-08T08:26:39;100458.91;;;10.78;53.85
13593;BME280;6867;50.998;4.250;2024-03-08T08:29:06;100407.63;;;10.55;53.32
13593;BME280;6867;50.998;4.250;2024-03-08T08:31:32;100415.94;;;10.78;52.78
13593;BME280;6867;50.998;4.250;2024-03-08T08:33:59;100426.81;;;11.15;52.75
13593;BME280;6867;50.998;4.250;2024-03-08T08:36:26;100434.56;;;11.30;52.63
13593;BME280;6867;50.998;4.250;2024-03-08T08:38:57;100374.81;;;11.03;52.21
13593;BME280;6867;50.998;4.250;2024-03-08T08:41:24;100409.88;;;10.89;52.94
13593;BME280;6867;50.998;4.250;2024-03-08T08:43:52;100406.41;;;11.07;52.52
13593;BME280;6867;50.998;4.250;2024-03-08T08:46:18;100374.13;;;10.89;52.67
13593;BME280;6867;50.998;4.250;2024-03-08T08:48:46;100391.75;;;10.78;53.28
13593;BME280;6867;50.998;4.250;2024-03-08T08:51:13;100429.50;;;11.40;53.01
13593;BME280;6867;50.998;4.250;2024-03-08T08:53:41;100398.81;;;11.47;52.26
13593;BME280;6867;50.998;4.250;2024-03-08T08:56:10;100412.81;;;11.31;52.49
13593;BME280;6867;50.998;4.250;2024-03-08T08:58:40;100370.66;;;11.07;52.69
13593;BME280;6867;50.998;4.250;2024-03-08T09:01:08;100375.72;;;10.96;53.03
13593;BME280;6867;50.998;4.250;2024-03-08T09:03:35;100365.63;;;10.67;53.76
13593;BME280;6867;50.998;4.250;2024-03-08T09:06:03;100391.28;;;11.13;53.40
13593;BME280;6867;50.998;4.250;2024-03-08T09:08:30;100406.16;;;11.59;52.25
13593;BME280;6867;50.998;4.250;2024-03-08T09:10:57;100378.19;;;11.60;51.72
13593;BME280;6867;50.998;4.250;2024-03-08T09:13:26;100361.00;;;11.42;52.38
13593;BME280;6867;50.998;4.250;2024-03-08T09:15:53;100366.09;;;11.51;52.29
13593;BME280;6867;50.998;4.250;2024-03-08T09:18:20;100387.88;;;12.16;51.21
13593;BME280;6867;50.998;4.250;2024-03-08T09:20:47;100351.59;;;11.88;51.19
13593;BME280;6867;50.998;4.250;2024-03-08T09:23:13;100359.63;;;12.37;50.62
13593;BME280;6867;50.998;4.250;2024-03-08T09:25:42;100334.63;;;12.48;49.85
13593;BME280;6867;50.998;4.250;2024-03-08T09:28:09;100319.53;;;11.87;51.05
13593;BME280;6867;50.998;4.250;2024-03-08T09:30:38;100370.22;;;12.92;49.80
13593;BME280;6867;50.998;4.250;2024-03-08T09:33:05;100297.00;;;12.41;49.78
13593;BME280;6867;50.998;4.250;2024-03-08T09:35:32;100333.13;;;12.64;49.96
13593;BME280;6867;50.998;4.250;2024-03-08T09:37:58;100310.25;;;12.43;50.26
13593;BME280;6867;50.998;4.250;2024-03-08T09:40:25;100285.03;;;12.26;50.08
13593;BME280;6867;50.998;4.250;2024-03-08T09:42:52;100302.88;;;12.38;50.07
13593;BME280;6867;50.998;4.250;2024-03-08T09:45:21;100321.78;;;12.74;50.05
13593;BME280;6867;50.998;4.250;2024-03-08T09:47:50;100304.09;;;12.89;49.23
13593;BME280;6867;50.998;4.250;2024-03-08T09:50:18;100254.53;;;12.55;49.15
13593;BME280;6867;50.998;4.250;2024-03-08T09:52:47;100221.63;;;11.88;49.62
13593;BME280;6867;50.998;4.250;2024-03-08T09:55:15;100276.66;;;12.57;49.53
13593;BME280;6867;50.998;4.250;2024-03-08T09:57:47;100233.06;;;12.49;49.33
13593;BME280;6867;50.998;4.250;2024-03-08T10:00:29;100215.09;;;12.07;49.50
13593;BME280;6867;50.998;4.250;2024-03-08T10:03:00;100226.88;;;12.48;49.07
13593;BME280;6867;50.998;4.250;2024-03-08T10:05:27;100223.00;;;12.79;48.66
13593;BME280;6867;50.998;4.250;2024-03-08T10:07:54;100278.16;;;13.12;48.88
13593;BME280;6867;50.998;4.250;2024-03-08T10:10:21;100216.06;;;12.95;48.12
13593;BME280;6867;50.998;4.250;2024-03-08T10:12:48;100252.97;;;13.18;48.59
13593;BME280;6867;50.998;4.250;2024-03-08T10:15:16;100188.63;;;13.10;47.80
13593;BME280;6867;50.998;4.250;2024-03-08T10:17:43;100188.81;;;13.20;47.27
13593;BME280;6867;50.998;4.250;2024-03-08T10:20:14;100173.41;;;13.44;46.98
13593;BME280;6867;50.998;4.250;2024-03-08T10:22:41;100205.44;;;13.69;46.68
13593;BME280;6867;50.998;4.250;2024-03-08T10:25:10;100190.78;;;13.36;47.19
13593;BME280;6867;50.998;4.250;2024-03-08T10:27:38;100176.16;;;13.61;46.79
13593;BME280;6867;50.998;4.250;2024-03-08T10:30:07;100140.34;;;12.96;47.21
13593;BME280;6867;50.998;4.250;2024-03-08T10:32:38;100159.72;;;13.34;47.02
13593;BME280;6867;50.998;4.250;2024-03-08T10:35:06;100200.03;;;13.69;47.38
13593;BME280;6867;50.998;4.250;2024-03-08T10:37:43;100206.56;;;13.56;47.71
13593;BME280;6867;50.998;4.250;2024-03-08T10:40:16;100167.41;;;13.70;46.77
13593;BME280;6867;50.998;4.250;2024-03-08T10:42:51;100107.50;;;13.00;47.05
13593;BME280;6867;50.998;4.250;2024-03-08T10:45:26;100121.38;;;13.32;47.10
13593;BME280;6867;50.998;4.250;2024-03-08T10:48:05;100163.78;;;13.48;47.68
13593;BME280;6867;50.998;4.250;2024-03-08T10:50:36;100149.00;;;12.99;48.51
13593;BME280;6867;50.998;4.250;2024-03-08T10:53:06;100232.03;;;14.39;47.03
13593;BME280;6867;50.998;4.250;2024-03-08T10:55:33;100119.75;;;14.10;45.89
13593;BME280;6867;50.998;4.250;2024-03-08T10:58:00;100135.22;;;13.98;46.09
13593;BME280;6867;50.998;4.250;2024-03-08T11:00:27;100123.00;;;13.95;45.88
13593;BME280;6867;50.998;4.250;2024-03-08T11:02:54;100121.84;;;13.74;46.57
13593;BME280;6867;50.998;4.250;2024-03-08T11:05:32;100153.78;;;14.11;46.76
13593;BME280;6867;50.998;4.250;2024-03-08T11:08:06;100115.72;;;13.95;46.02
13593;BME280;6867;50.998;4.250;2024-03-08T11:10:47;100161.63;;;14.29;46.31
13593;BME280;6867;50.998;4.250;2024-03-08T11:13:34;100120.91;;;13.80;46.83
13593;BME280;6867;50.998;4.250;2024-03-08T11:16:02;100193.22;;;14.62;46.63
13593;BME280;6867;50.998;4.250;2024-03-08T11:18:32;100137.53;;;14.61;45.50
13593;BME280;6867;50.998;4.250;2024-03-08T11:21:02;100156.78;;;14.65;45.81
13593;BME280;6867;50.998;4.250;2024-03-08T11:23:32;100197.69;;;14.52;46.66
13593;BME280;6867;50.998;4.250;2024-03-08T11:25:59;100218.00;;;14.93;46.33
13593;BME280;6867;50.998;4.250;2024-03-08T11:28:26;100132.03;;;14.01;47.00
13593;BME280;6867;50.998;4.250;2024-03-08T11:31:24;100196.16;;;14.78;46.38
13593;BME280;6867;50.998;4.250;2024-03-08T11:33:52;100168.19;;;15.11;45.38
13593;BME280;6867;50.998;4.250;2024-03-08T11:36:20;100126.69;;;14.78;45.28
13593;BME280;6867;50.998;4.250;2024-03-08T11:38:50;100114.13;;;14.89;45.23
13593;BME280;6867;50.998;4.250;2024-03-08T11:41:18;100098.84;;;15.05;44.83
13593;BME280;6867;50.998;4.250;2024-03-08T11:43:46;100190.72;;;15.38;45.78
13593;BME280;6867;50.998;4.250;2024-03-08T11:46:14;100133.94;;;15.43;45.26
13593;BME280;6867;50.998;4.250;2024-03-08T11:48:42;100117.28;;;15.57;44.14
13593;BME280;6867;50.998;4.250;2024-03-08T11:51:11;100127.81;;;15.26;45.21
13593;BME280;6867;50.998;4.250;2024-03-08T11:53:39;100116.81;;;14.89;45.69
13593;BME280;6867;50.998;4.250;2024-03-08T11:56:08;100105.13;;;15.32;44.65
13593;BME280;6867;50.998;4.250;2024-03-08T11:58:35;100096.13;;;15.54;44.34
13593;BME280;6867;50.998;4.250;2024-03-08T12:01:03;100043.84;;;15.21;44.50
13593;BME280;6867;50.998;4.250;2024-03-08T12:03:31;100059.16;;;15.37;44.32
13593;BME280;6867;50.998;4.250;2024-03-08T12:05:59;100117.06;;;15.90;44.08
13593;BME280;6867;50.998;4.250;2024-03-08T12:08:27;100119.56;;;15.97;44.50
13593;BME280;6867;50.998;4.250;2024-03-08T12:10:55;100100.66;;;15.75;44.54
13593;BME280;6867;50.998;4.250;2024-03-08T12:13:26;100062.53;;;15.77;44.05
13593;BME280;6867;50.998;4.250;2024-03-08T12:15:56;100095.38;;;15.90;44.28
13593;BME280;6867;50.998;4.250;2024-03-08T12:18:24;100035.47;;;15.50;44.05
13593;BME280;6867;50.998;4.250;2024-03-08T12:20:51;100059.91;;;15.60;44.90
13593;BME280;6867;50.998;4.250;2024-03-08T12:23:19;100101.75;;;15.47;46.07
13593;BME280;6867;50.998;4.250;2024-03-08T12:25:45;100016.59;;;15.28;44.84
13593;BME280;6867;50.998;4.250;2024-03-08T12:28:13;100035.78;;;15.85;43.54
13593;BME280;6867;50.998;4.250;2024-03-08T12:30:46;100103.53;;;16.33;44.22
13593;BME280;6867;50.998;4.250;2024-03-08T12:33:14;100049.38;;;15.96;44.32
13593;BME280;6867;50.998;4.250;2024-03-08T12:35:41;100066.09;;;16.25;44.09
13593;BME280;6867;50.998;4.250;2024-03-08T12:38:09;100008.19;;;15.56;44.59
13593;BME280;6867;50.998;4.250;2024-03-08T12:40:35;100036.91;;;15.94;44.01
13593;BME280;6867;50.998;4.250;2024-03-08T12:43:07;100011.16;;;15.92;44.02
13593;BME280;6867;50.998;4.250;2024-03-08T12:45:34;100088.22;;;16.59;44.00
13593;BME280;6867;50.998;4.250;2024-03-08T12:48:12;100052.31;;;16.31;44.02
13593;BME280;6867;50.998;4.250;2024-03-08T12:50:46;100061.66;;;16.61;43.90
13593;BME280;6867;50.998;4.250;2024-03-08T12:53:13;100005.75;;;15.92;44.48
13593;BME280;6867;50.998;4.250;2024-03-08T12:55:40;99961.78;;;15.80;43.69
13593;BME280;6867;50.998;4.250;2024-03-08T12:58:06;99980.16;;;15.67;44.64
13593;BME280;6867;50.998;4.250;2024-03-08T13:00:33;100054.63;;;16.65;44.25
13593;BME280;6867;50.998;4.250;2024-03-08T13:03:03;100026.81;;;16.85;43.43
13593;BME280;6867;50.998;4.250;2024-03-08T13:05:31;99996.06;;;16.64;42.93
13593;BME280;6867;50.998;4.250;2024-03-08T13:07:58;99989.56;;;16.70;43.04
13593;BME280;6867;50.998;4.250;2024-03-08T13:10:25;100030.91;;;17.08;43.31